Time;durP1;ratioP1;P1;durP2;ratioP2;P2;SDS_P1;SDS_P2;PMS_P1;PMS_P2;Temp;Humidity;BMP_temperature;BMP_pressure;BME280_temperature;BME280_humidity;BME280_pressure;Samples;Min_cycle;Max_cycle;Signal;HPM_P1;HPM_P2
2022/01/10 00:01:08;;;;;;;2.42;2.22;;;;;;;;;;5141503;27;20234;-87
2022/01/10 00:03:36;;;;;;;2.55;2.35;;;;;;;;;;5141082;27;20202;-86
2022/01/10 00:06:03;;;;;;;3.05;2.58;;;;;;;;;;5141619;27;20604;-88
2022/01/10 00:08:31;;;;;;;4.45;3.78;;;;;;;;;;5142371;27;20199;-88
2022/01/10 00:10:58;;;;;;;3.13;2.70;;;;;;;;;;5141933;27;20253;-88
2022/01/10 00:13:27;;;;;;;2.95;2.65;;;;;;;;;;5141522;27;20198;-88
2022/01/10 00:15:55;;;;;;;4.20;3.80;;;;;;;;;;5140411;27;20211;-88
2022/01/10 00:18:22;;;;;;;5.25;4.05;;;;;;;;;;5141324;27;20569;-87
2022/01/10 00:20:49;;;;;;;2.97;2.67;;;;;;;;;;5140899;27;20581;-87
2022/01/10 00:23:17;;;;;;;3.75;3.00;;;;;;;;;;5141418;27;20234;-88
2022/01/10 00:25:44;;;;;;;2.63;2.38;;;;;;;;;;5140189;27;20225;-88
2022/01/10 00:28:11;;;;;;;6.35;3.53;;;;;;;;;;5141600;27;20620;-88
2022/01/10 00:30:40;;;;;;;10.52;4.95;;;;;;;;;;5141705;27;20219;-88
2022/01/10 00:33:07;;;;;;;13.63;4.15;;;;;;;;;;5141170;27;20206;-86
2022/01/10 00:35:35;;;;;;;7.57;5.28;;;;;;;;;;5141476;27;20191;-86
2022/01/10 00:38:02;;;;;;;9.02;5.50;;;;;;;;;;5141089;27;20199;-88
2022/01/10 00:40:29;;;;;;;2.90;2.70;;;;;;;;;;5140287;27;20218;-86
2022/01/10 00:42:57;;;;;;;2.72;2.25;;;;;;;;;;5140725;27;20199;-87
2022/01/10 00:45:28;;;;;;;5.38;3.95;;;;;;;;;;5140494;27;20596;-87
2022/01/10 00:47:58;;;;;;;3.42;3.08;;;;;;;;;;5141965;27;20202;-88
2022/01/10 00:50:25;;;;;;;3.33;3.00;;;;;;;;;;5140844;27;20288;-87
2022/01/10 00:52:53;;;;;;;3.63;3.33;;;;;;;;;;5140876;27;20670;-86
2022/01/10 00:55:21;;;;;;;5.50;3.75;;;;;;;;;;5139954;27;20202;-88
2022/01/10 00:57:48;;;;;;;3.03;2.67;;;;;;;;;;5140059;27;20702;-87
2022/01/10 01:00:17;;;;;;;3.50;2.90;;;;;;;;;;5140053;27;20575;-87
2022/01/10 01:02:45;;;;;;;4.18;2.58;;;;;;;;;;5140061;27;20227;-87
2022/01/10 01:05:19;;;;;;;9.63;3.17;;;;;;;;;;5140040;27;20202;-88
2022/01/10 01:07:46;;;;;;;7.95;4.13;;;;;;;;;;5140543;27;20236;-87
2022/01/10 01:10:47;;;;;;;6.00;4.88;;;;;;;;;;5140205;27;20183;-87
2022/01/10 01:13:24;;;;;;;5.55;3.20;;;;;;;;;;5140148;27;20286;-86
2022/01/10 01:16:09;;;;;;;4.53;2.80;;;;;;;;;;5139797;27;20208;-88
2022/01/10 01:19:06;;;;;;;4.80;4.22;;;;;;;;;;5140681;27;20281;-86
2022/01/10 01:24:20;;;;;;;5.93;3.80;;;;;;;;;;5139828;28;20198;-87
2022/01/10 01:26:52;;;;;;;11.63;4.65;;;;;;;;;;5151855;22;20236;-84
2022/01/10 01:29:22;;;;;;;5.07;3.05;;;;;;;;;;5100273;28;20200;-85
2022/01/10 01:31:50;;;;;;;7.22;4.10;;;;;;;;;;5100352;28;20204;-84
2022/01/10 01:34:18;;;;;;;8.85;5.43;;;;;;;;;;5100555;28;20234;-85
2022/01/10 01:36:51;;;;;;;5.70;4.35;;;;;;;;;;5100315;28;20200;-85
2022/01/10 01:39:21;;;;;;;5.65;4.13;;;;;;;;;;5100040;28;20232;-84
2022/01/10 01:41:49;;;;;;;6.50;4.00;;;;;;;;;;5100005;28;20212;-84
2022/01/10 01:44:17;;;;;;;12.95;5.68;;;;;;;;;;5099455;28;20212;-85
2022/01/10 01:46:44;;;;;;;4.82;3.17;;;;;;;;;;5099343;28;20607;-84
2022/01/10 01:49:12;;;;;;;6.72;3.97;;;;;;;;;;5099564;28;20644;-84
2022/01/10 01:51:41;;;;;;;5.45;3.17;;;;;;;;;;5099854;28;20249;-85
2022/01/10 01:54:10;;;;;;;5.50;3.50;;;;;;;;;;5099450;28;20274;-84
2022/01/10 01:56:38;;;;;;;11.00;4.47;;;;;;;;;;5099150;28;20200;-85
2022/01/10 01:59:06;;;;;;;11.38;4.65;;;;;;;;;;5098902;28;20200;-84
2022/01/10 02:01:35;;;;;;;8.40;4.88;;;;;;;;;;5097875;28;20220;-84
2022/01/10 02:04:02;;;;;;;4.03;3.55;;;;;;;;;;5098733;28;20223;-85
2022/01/10 02:06:30;;;;;;;4.20;3.78;;;;;;;;;;5098442;28;20238;-84
2022/01/10 02:08:57;;;;;;;8.82;5.07;;;;;;;;;;5098318;28;20200;-85
2022/01/10 02:11:26;;;;;;;5.15;2.95;;;;;;;;;;5097450;28;20200;-85
2022/01/10 02:13:53;;;;;;;2.22;2.03;;;;;;;;;;5097643;28;20281;-85
2022/01/10 02:16:32;;;;;;;3.63;3.03;;;;;;;;;;5097618;28;20558;-85
2022/01/10 02:18:59;;;;;;;3.95;2.63;;;;;;;;;;5097204;28;20197;-85
2022/01/10 02:21:28;;;;;;;3.05;2.80;;;;;;;;;;5097368;28;20205;-83
2022/01/10 02:23:57;;;;;;;2.05;1.85;;;;;;;;;;5099952;28;20216;-85
2022/01/10 02:26:24;;;;;;;1.70;1.60;;;;;;;;;;5100530;28;20215;-85
2022/01/10 02:28:52;;;;;;;3.67;2.20;;;;;;;;;;5100488;28;20254;-84
2022/01/10 02:31:19;;;;;;;2.58;1.60;;;;;;;;;;5101147;28;20611;-85
2022/01/10 02:33:50;;;;;;;3.63;2.35;;;;;;;;;;5100238;28;20224;-85
2022/01/10 02:36:23;;;;;;;6.07;2.35;;;;;;;;;;5100200;28;20254;-84
2022/01/10 02:38:54;;;;;;;2.15;1.95;;;;;;;;;;5099868;28;20245;-85
2022/01/10 02:41:24;;;;;;;3.70;2.83;;;;;;;;;;5100125;28;20679;-85
2022/01/10 02:43:53;;;;;;;6.50;4.25;;;;;;;;;;5099450;28;20227;-84
2022/01/10 02:46:21;;;;;;;3.00;2.22;;;;;;;;;;5099703;28;20619;-85
2022/01/10 02:48:48;;;;;;;2.17;1.77;;;;;;;;;;5099645;28;20200;-84
2022/01/10 02:51:16;;;;;;;4.57;2.90;;;;;;;;;;5098913;28;20208;-85
2022/01/10 02:53:43;;;;;;;5.47;3.53;;;;;;;;;;5098794;28;20220;-84
2022/01/10 02:56:12;;;;;;;3.67;2.22;;;;;;;;;;5098618;28;20663;-84
2022/01/10 02:58:39;;;;;;;4.70;3.42;;;;;;;;;;5098307;28;20223;-84
2022/01/10 03:01:07;;;;;;;3.40;3.10;;;;;;;;;;5098742;28;20200;-84
2022/01/10 03:03:34;;;;;;;3.42;3.13;;;;;;;;;;5098273;28;20231;-84
2022/01/10 03:06:03;;;;;;;5.30;3.10;;;;;;;;;;5098811;28;20253;-84
2022/01/10 03:08:33;;;;;;;3.50;3.20;;;;;;;;;;5098991;28;20208;-85
2022/01/10 03:11:00;;;;;;;4.32;3.35;;;;;;;;;;5098292;28;20220;-84
2022/01/10 03:13:29;;;;;;;7.95;5.20;;;;;;;;;;5098167;28;20207;-84
2022/01/10 03:15:56;;;;;;;6.18;4.55;;;;;;;;;;5097801;28;20712;-84
2022/01/10 03:18:24;;;;;;;4.28;3.88;;;;;;;;;;5097802;28;20207;-85
2022/01/10 03:20:51;;;;;;;4.80;4.00;;;;;;;;;;5098032;28;20208;-84
2022/01/10 03:23:18;;;;;;;4.03;3.38;;;;;;;;;;5097398;28;20224;-84
2022/01/10 03:25:46;;;;;;;3.20;2.90;;;;;;;;;;5098174;28;20230;-84
2022/01/10 03:28:15;;;;;;;5.22;4.57;;;;;;;;;;5097621;28;20277;-85
2022/01/10 03:30:44;;;;;;;3.63;2.88;;;;;;;;;;5097356;28;20791;-84
2022/01/10 03:33:11;;;;;;;5.88;5.28;;;;;;;;;;5097086;28;20208;-84
2022/01/10 03:35:39;;;;;;;4.10;3.55;;;;;;;;;;5096689;28;20211;-85
2022/01/10 03:38:07;;;;;;;4.20;3.80;;;;;;;;;;5096383;28;20197;-84
2022/01/10 03:40:34;;;;;;;5.40;4.90;;;;;;;;;;5096169;28;20207;-84
2022/01/10 03:43:01;;;;;;;5.40;4.70;;;;;;;;;;5095196;28;20223;-83
2022/01/10 03:45:29;;;;;;;4.82;4.18;;;;;;;;;;5094403;28;20224;-83
2022/01/10 03:47:58;;;;;;;3.88;3.03;;;;;;;;;;5095351;28;20207;-84
2022/01/10 03:50:25;;;;;;;6.13;4.53;;;;;;;;;;5094880;28;20617;-84
2022/01/10 03:52:52;;;;;;;4.40;3.50;;;;;;;;;;5094883;28;20201;-84
2022/01/10 03:55:20;;;;;;;4.35;3.75;;;;;;;;;;5094814;28;20274;-84
2022/01/10 03:57:47;;;;;;;5.40;4.25;;;;;;;;;;5094800;28;20575;-84
2022/01/10 04:00:15;;;;;;;3.65;3.35;;;;;;;;;;5094385;28;20204;-84
2022/01/10 04:02:46;;;;;;;3.53;3.08;;;;;;;;;;5094857;28;20227;-84
2022/01/10 04:05:15;;;;;;;4.70;3.65;;;;;;;;;;5094893;28;20227;-84
2022/01/10 04:07:42;;;;;;;5.50;4.47;;;;;;;;;;5094743;28;20196;-84
2022/01/10 04:10:10;;;;;;;4.97;4.45;;;;;;;;;;5094113;28;20200;-84
2022/01/10 04:12:37;;;;;;;6.70;4.15;;;;;;;;;;5093901;28;20228;-84
2022/01/10 04:15:08;;;;;;;4.70;4.20;;;;;;;;;;5094593;28;20639;-84
2022/01/10 04:17:35;;;;;;;4.70;3.92;;;;;;;;;;5094858;28;20208;-84
2022/01/10 04:20:03;;;;;;;5.70;3.67;;;;;;;;;;5094629;28;20283;-84
2022/01/10 04:22:32;;;;;;;4.45;3.25;;;;;;;;;;5094667;28;20193;-84
2022/01/10 04:25:00;;;;;;;3.92;2.65;;;;;;;;;;5094285;28;20703;-84
2022/01/10 04:27:31;;;;;;;3.90;3.60;;;;;;;;;;5094590;28;20212;-84
2022/01/10 04:29:59;;;;;;;3.28;2.97;;;;;;;;;;5094616;28;20196;-83
2022/01/10 04:32:29;;;;;;;2.83;2.35;;;;;;;;;;5094468;28;20204;-84
2022/01/10 04:34:57;;;;;;;2.42;2.22;;;;;;;;;;5094183;28;20220;-84
2022/01/10 04:37:24;;;;;;;3.15;2.67;;;;;;;;;;5094165;28;20200;-84
2022/01/10 04:39:53;;;;;;;2.13;2.00;;;;;;;;;;5093950;28;20197;-84
2022/01/10 04:42:20;;;;;;;2.17;1.95;;;;;;;;;;5094098;28;20197;-84
2022/01/10 04:44:49;;;;;;;2.42;2.22;;;;;;;;;;5093185;28;20228;-84
2022/01/10 04:47:16;;;;;;;2.95;2.60;;;;;;;;;;5094056;28;20254;-84
2022/01/10 04:50:03;;;;;;;4.07;3.05;;;;;;;;;;5093798;28;20204;-84
2022/01/10 04:52:31;;;;;;;2.75;2.55;;;;;;;;;;5094003;28;20573;-85
2022/01/10 04:55:01;;;;;;;5.05;3.20;;;;;;;;;;5093890;28;20734;-83
2022/01/10 04:57:29;;;;;;;8.90;2.67;;;;;;;;;;5093339;28;20208;-84
2022/01/10 04:59:56;;;;;;;2.75;2.22;;;;;;;;;;5093663;28;20208;-85
2022/01/10 05:02:24;;;;;;;1.98;1.88;;;;;;;;;;5093542;28;20666;-84
2022/01/10 05:04:51;;;;;;;3.00;2.50;;;;;;;;;;5093422;28;20219;-84
2022/01/10 05:07:20;;;;;;;2.75;1.90;;;;;;;;;;5094083;28;20728;-84
2022/01/10 05:09:47;;;;;;;2.83;2.13;;;;;;;;;;5093694;28;20212;-84
2022/01/10 05:12:16;;;;;;;1.80;1.70;;;;;;;;;;5093884;28;20225;-84
2022/01/10 05:14:43;;;;;;;1.67;1.58;;;;;;;;;;5093215;28;20250;-84
2022/01/10 05:17:11;;;;;;;2.38;2.17;;;;;;;;;;5093945;28;20576;-85
2022/01/10 05:19:38;;;;;;;2.63;2.42;;;;;;;;;;5093850;28;20208;-84
2022/01/10 05:22:06;;;;;;;2.13;1.92;;;;;;;;;;5093494;28;20561;-84
2022/01/10 05:24:34;;;;;;;2.25;2.05;;;;;;;;;;5094409;28;20228;-84
2022/01/10 05:27:02;;;;;;;3.70;2.65;;;;;;;;;;5094473;28;20215;-85
2022/01/10 05:29:30;;;;;;;2.70;2.30;;;;;;;;;;5093710;28;20208;-84
2022/01/10 05:31:58;;;;;;;3.08;2.78;;;;;;;;;;5093710;28;20226;-84
2022/01/10 05:34:26;;;;;;;3.47;2.47;;;;;;;;;;5093290;28;20718;-84
2022/01/10 05:36:53;;;;;;;2.03;1.80;;;;;;;;;;5093953;28;20196;-84
2022/01/10 05:39:20;;;;;;;4.65;2.00;;;;;;;;;;5094078;28;20192;-84
2022/01/10 05:41:48;;;;;;;3.25;2.60;;;;;;;;;;5094005;28;20638;-84
2022/01/10 05:44:15;;;;;;;3.70;2.60;;;;;;;;;;5093370;28;20228;-84
2022/01/10 05:46:46;;;;;;;5.88;2.70;;;;;;;;;;5094797;28;20226;-84
2022/01/10 05:49:13;;;;;;;2.80;2.60;;;;;;;;;;5095899;28;20207;-85
2022/01/10 05:51:41;;;;;;;2.05;1.90;;;;;;;;;;5092321;28;20559;-86
2022/01/10 05:54:09;;;;;;;3.53;2.00;;;;;;;;;;5092200;28;20249;-86
2022/01/10 05:56:37;;;;;;;2.78;1.70;;;;;;;;;;5092491;28;20207;-85
2022/01/10 05:59:05;;;;;;;2.40;2.20;;;;;;;;;;5096103;28;20200;-86
2022/01/10 06:01:32;;;;;;;2.75;2.05;;;;;;;;;;5094505;28;20585;-85
2022/01/10 06:04:05;;;;;;;2.65;2.15;;;;;;;;;;5095312;28;20254;-86
2022/01/10 06:06:32;;;;;;;1.90;1.60;;;;;;;;;;5096026;28;20196;-86
2022/01/10 06:09:04;;;;;;;1.90;1.70;;;;;;;;;;5106375;28;20203;-85
2022/01/10 06:11:34;;;;;;;2.78;2.58;;;;;;;;;;5113979;28;20188;-84
2022/01/10 06:14:01;;;;;;;4.65;2.70;;;;;;;;;;5112013;28;20216;-84
2022/01/10 06:16:29;;;;;;;3.90;2.80;;;;;;;;;;5108140;28;20257;-85
2022/01/10 06:18:56;;;;;;;7.20;3.35;;;;;;;;;;5098454;28;20231;-85
2022/01/10 06:21:25;;;;;;;3.97;2.90;;;;;;;;;;5098220;28;20207;-84
2022/01/10 06:23:52;;;;;;;4.55;2.47;;;;;;;;;;5097489;28;20235;-85
2022/01/10 06:26:20;;;;;;;2.97;2.53;;;;;;;;;;5098382;28;20208;-85
2022/01/10 06:28:47;;;;;;;4.40;3.15;;;;;;;;;;5098329;28;20203;-85
2022/01/10 06:31:14;;;;;;;9.02;3.33;;;;;;;;;;5097393;28;20200;-85
2022/01/10 06:33:42;;;;;;;4.82;2.97;;;;;;;;;;5098161;28;20216;-85
2022/01/10 06:36:09;;;;;;;3.92;2.90;;;;;;;;;;5097921;28;20193;-86
2022/01/10 06:38:38;;;;;;;4.70;2.90;;;;;;;;;;5097474;28;20200;-85
2022/01/10 06:41:05;;;;;;;4.03;3.30;;;;;;;;;;5098425;28;20188;-85
2022/01/10 06:43:33;;;;;;;4.32;3.78;;;;;;;;;;5098621;28;20208;-85
2022/01/10 06:46:00;;;;;;;6.32;4.35;;;;;;;;;;5098051;28;20277;-85
2022/01/10 06:48:27;;;;;;;5.78;4.45;;;;;;;;;;5096188;28;20674;-85
2022/01/10 06:50:55;;;;;;;10.88;4.07;;;;;;;;;;5095760;28;20208;-85
2022/01/10 06:53:23;;;;;;;7.88;4.13;;;;;;;;;;5095712;28;20242;-86
2022/01/10 06:55:52;;;;;;;8.05;4.18;;;;;;;;;;5096616;28;20582;-85
2022/01/10 06:58:19;;;;;;;8.00;5.35;;;;;;;;;;5097639;28;20197;-86
2022/01/10 07:00:47;;;;;;;7.82;5.88;;;;;;;;;;5097497;28;20207;-85
2022/01/10 07:03:15;;;;;;;7.00;4.88;;;;;;;;;;5096758;28;20212;-84
2022/01/10 07:05:42;;;;;;;9.63;6.55;;;;;;;;;;5095859;28;20225;-84
2022/01/10 07:08:10;;;;;;;11.40;6.82;;;;;;;;;;5096074;28;20196;-84
2022/01/10 07:10:37;;;;;;;6.82;6.03;;;;;;;;;;5096497;28;20694;-85
2022/01/10 07:13:06;;;;;;;7.55;5.95;;;;;;;;;;5096601;28;20208;-85
2022/01/10 07:15:44;;;;;;;7.68;5.35;;;;;;;;;;5096220;28;20224;-86
2022/01/10 07:18:12;;;;;;;12.93;7.00;;;;;;;;;;5099565;28;20208;-85
2022/01/10 07:23:48;;;;;;;12.32;6.85;;;;;;;;;;5105014;28;20251;-85
2022/01/10 07:26:19;;;;;;;10.90;6.55;;;;;;;;;;5115025;28;20310;-84
2022/01/10 07:31:44;;;;;;;14.23;6.43;;;;;;;;;;5098231;28;20285;-85
2022/01/10 07:34:38;;;;;;;11.25;7.18;;;;;;;;;;5094650;28;20224;-84
2022/01/10 07:37:06;;;;;;;12.20;5.18;;;;;;;;;;5094201;28;20204;-86
2022/01/10 07:39:58;;;;;;;7.93;5.60;;;;;;;;;;5094158;28;20313;-86
2022/01/10 07:42:41;;;;;;;11.25;5.65;;;;;;;;;;5094137;28;20590;-86
2022/01/10 07:45:16;;;;;;;13.85;7.05;;;;;;;;;;5094200;28;20741;-86
2022/01/10 07:48:15;;;;;;;9.70;5.78;;;;;;;;;;5094404;28;20206;-86
2022/01/10 07:50:46;;;;;;;10.10;5.50;;;;;;;;;;5093822;28;20208;-85
2022/01/10 07:53:19;;;;;;;10.65;6.97;;;;;;;;;;5093883;28;20278;-85
2022/01/10 07:55:57;;;;;;;7.90;5.90;;;;;;;;;;5093877;28;20675;-85
2022/01/10 08:02:13;;;;;;;9.80;6.15;;;;;;;;;;5093706;28;20265;-85
2022/01/10 08:04:41;;;;;;;7.45;6.35;;;;;;;;;;5095513;28;20227;-88
2022/01/10 08:07:08;;;;;;;12.38;6.18;;;;;;;;;;5094793;28;20200;-87
2022/01/10 08:09:36;;;;;;;11.55;7.60;;;;;;;;;;5094285;28;20200;-87
2022/01/10 08:12:04;;;;;;;9.80;6.50;;;;;;;;;;5094225;28;20199;-87
2022/01/10 08:14:51;;;;;;;16.63;7.88;;;;;;;;;;5094796;28;20307;-88
2022/01/10 08:17:22;;;;;;;11.07;6.20;;;;;;;;;;5094883;28;20201;-87
2022/01/10 08:19:49;;;;;;;9.23;5.63;;;;;;;;;;5094190;28;20287;-86
2022/01/10 08:22:26;;;;;;;10.80;7.40;;;;;;;;;;5094633;28;20271;-86
2022/01/10 08:24:58;;;;;;;12.90;6.53;;;;;;;;;;5096061;28;20230;-87
2022/01/10 08:28:19;;;;;;;13.82;6.65;;;;;;;;;;5095035;28;20549;-86
2022/01/10 08:34:44;;;;;;;10.50;4.97;;;;;;;;;;5022144;28;20280;-86
2022/01/10 08:41:19;;;;;;;13.90;5.53;;;;;;;;;;5092823;28;20204;-85
2022/01/10 08:44:02;;;;;;;11.43;5.53;;;;;;;;;;5093357;28;20219;-86
2022/01/10 09:32:21;;;;;;;6.03;4.85;;;;;;;;;;4759168;29;20243;-85
2022/01/10 09:34:49;;;;;;;8.20;5.30;;;;;;;;;;4885862;28;20228;-84
2022/01/10 09:37:17;;;;;;;7.00;6.00;;;;;;;;;;5036547;28;20229;-84
2022/01/10 09:39:45;;;;;;;9.00;6.22;;;;;;;;;;5073266;28;20564;-86
2022/01/10 09:42:13;;;;;;;8.82;6.63;;;;;;;;;;5079002;28;20676;-85
2022/01/10 09:44:42;;;;;;;6.88;5.50;;;;;;;;;;5079081;28;20213;-85
2022/01/10 09:47:09;;;;;;;6.45;5.50;;;;;;;;;;5079552;28;20242;-85
2022/01/10 09:49:41;;;;;;;6.35;5.65;;;;;;;;;;5079321;28;20205;-85
2022/01/10 09:52:09;;;;;;;4.95;4.30;;;;;;;;;;5080064;28;21001;-85
2022/01/10 09:54:36;;;;;;;7.50;6.13;;;;;;;;;;5078109;28;20621;-85
2022/01/10 09:57:05;;;;;;;7.97;5.50;;;;;;;;;;5078392;28;20223;-84
2022/01/10 09:59:43;;;;;;;6.05;5.45;;;;;;;;;;5078228;28;20197;-85
2022/01/10 10:02:20;;;;;;;7.85;5.80;;;;;;;;;;5078285;28;20209;-84
2022/01/10 10:04:53;;;;;;;11.25;6.43;;;;;;;;;;5081468;28;20236;-85
2022/01/10 10:07:24;;;;;;;8.85;6.25;;;;;;;;;;5077632;28;20302;-85
2022/01/10 10:10:12;;;;;;;10.50;6.22;;;;;;;;;;5077953;28;20288;-84
2022/01/10 10:15:31;;;;;;;8.25;6.65;;;;;;;;;;5077297;28;20253;-84
2022/01/10 10:17:58;;;;;;;9.13;6.43;;;;;;;;;;5079607;28;20215;-84
2022/01/10 10:20:28;;;;;;;8.57;6.38;;;;;;;;;;5081393;28;20616;-85
2022/01/10 10:22:58;;;;;;;9.02;6.80;;;;;;;;;;5079048;28;20197;-85
2022/01/10 10:25:25;;;;;;;10.27;6.10;;;;;;;;;;5076988;28;20229;-84
2022/01/10 10:27:53;;;;;;;13.27;6.63;;;;;;;;;;5077369;28;20689;-86
2022/01/10 10:30:23;;;;;;;10.40;5.85;;;;;;;;;;5076429;28;20204;-85
2022/01/10 10:32:51;;;;;;;8.68;6.80;;;;;;;;;;5076539;28;20828;-83
2022/01/10 10:35:20;;;;;;;11.38;5.85;;;;;;;;;;5076155;28;20231;-85
2022/01/10 10:37:49;;;;;;;8.48;5.97;;;;;;;;;;5076136;28;20247;-85
2022/01/10 10:40:17;;;;;;;10.45;5.53;;;;;;;;;;5076052;28;20197;-85
2022/01/10 10:42:46;;;;;;;12.45;5.68;;;;;;;;;;5075536;28;20197;-85
2022/01/10 10:45:14;;;;;;;8.38;5.35;;;;;;;;;;5076288;28;20259;-86
2022/01/10 10:47:45;;;;;;;7.63;6.38;;;;;;;;;;5074523;28;20225;-86
2022/01/10 10:50:13;;;;;;;11.18;5.65;;;;;;;;;;5074955;28;20207;-87
2022/01/10 10:52:42;;;;;;;6.65;5.15;;;;;;;;;;5076498;28;20208;-82
2022/01/10 10:55:13;;;;;;;7.00;5.10;;;;;;;;;;5077864;28;20683;-87
2022/01/10 10:57:42;;;;;;;12.15;6.10;;;;;;;;;;5077693;28;20247;-87
2022/01/10 11:02:53;;;;;;;12.07;6.78;;;;;;;;;;5077464;26;20313;-83
2022/01/10 11:05:21;;;;;;;14.30;7.15;;;;;;;;;;5079397;28;20656;-82
2022/01/10 11:12:56;;;;;;;8.25;5.55;;;;;;;;;;5076383;28;20228;-80
2022/01/10 11:15:24;;;;;;;6.65;5.22;;;;;;;;;;5080754;28;20197;-83
2022/01/10 11:25:29;;;;;;;11.98;6.25;;;;;;;;;;5033038;28;20613;-79
2022/01/10 11:28:01;;;;;;;8.07;6.00;;;;;;;;;;5036593;28;20612;-83
2022/01/10 11:30:35;;;;;;;7.63;5.65;;;;;;;;;;5028267;28;20202;-82
2022/01/10 11:37:03;;;;;;;8.00;5.75;;;;;;;;;;5036790;28;20189;-85
2022/01/10 11:39:36;;;;;;;8.13;5.13;;;;;;;;;;5070908;22;20597;-82
2022/01/10 11:44:33;;;;;;;11.85;6.13;;;;;;;;;;5053715;28;20225;-83
2022/01/10 11:47:02;;;;;;;8.63;5.65;;;;;;;;;;5056932;28;20223;-83
2022/01/10 11:49:30;;;;;;;9.02;5.55;;;;;;;;;;5037381;28;20202;-82
2022/01/10 11:52:05;;;;;;;11.63;5.32;;;;;;;;;;5036774;28;20228;-82
2022/01/10 11:54:39;;;;;;;5.50;4.45;;;;;;;;;;5036756;28;20213;-83
2022/01/10 11:59:38;;;;;;;6.47;4.10;;;;;;;;;;5033593;28;20210;-85
2022/01/10 12:02:10;;;;;;;7.22;5.22;;;;;;;;;;5035357;28;20234;-86
2022/01/10 12:04:39;;;;;;;14.07;5.93;;;;;;;;;;5035330;28;20737;-83
2022/01/10 12:07:09;;;;;;;8.63;5.68;;;;;;;;;;5035184;28;20222;-84
2022/01/10 12:09:37;;;;;;;13.20;6.45;;;;;;;;;;5035958;28;20207;-84
2022/01/10 12:12:06;;;;;;;10.25;5.25;;;;;;;;;;5035015;28;20210;-82
2022/01/10 12:14:35;;;;;;;8.18;6.05;;;;;;;;;;5035662;28;20229;-84
2022/01/10 12:17:03;;;;;;;6.70;5.40;;;;;;;;;;5035150;28;20273;-83
2022/01/10 12:19:30;;;;;;;7.88;5.38;;;;;;;;;;5034845;28;20210;-83
2022/01/10 12:21:58;;;;;;;8.88;7.03;;;;;;;;;;5035564;28;20252;-83
2022/01/10 12:24:25;;;;;;;10.00;6.40;;;;;;;;;;5036293;28;20198;-84
2022/01/10 12:26:52;;;;;;;8.13;5.47;;;;;;;;;;5035865;28;20202;-83
2022/01/10 12:29:22;;;;;;;10.30;6.28;;;;;;;;;;5034430;28;20203;-83
2022/01/10 12:31:50;;;;;;;7.70;5.88;;;;;;;;;;5034861;28;20642;-83
2022/01/10 12:34:18;;;;;;;10.15;7.32;;;;;;;;;;5034634;28;20267;-84
2022/01/10 12:36:46;;;;;;;11.95;7.10;;;;;;;;;;5034686;28;20206;-84
2022/01/10 12:39:20;;;;;;;11.93;7.05;;;;;;;;;;5034803;28;20632;-84
2022/01/10 12:41:48;;;;;;;8.05;5.60;;;;;;;;;;5034203;28;20271;-84
2022/01/10 12:44:16;;;;;;;7.28;4.95;;;;;;;;;;5035566;28;20631;-85
2022/01/10 12:46:44;;;;;;;7.45;5.40;;;;;;;;;;5035830;28;20200;-84
2022/01/10 12:49:14;;;;;;;6.85;5.18;;;;;;;;;;5035710;28;20270;-84
2022/01/10 12:51:45;;;;;;;7.30;6.05;;;;;;;;;;5034637;28;20712;-83
2022/01/10 12:54:15;;;;;;;9.80;7.25;;;;;;;;;;5036096;28;20198;-85
2022/01/10 12:56:43;;;;;;;5.72;5.10;;;;;;;;;;5035206;28;20202;-85
2022/01/10 12:59:13;;;;;;;8.50;6.90;;;;;;;;;;5035023;28;20219;-83
2022/01/10 13:01:41;;;;;;;7.20;6.07;;;;;;;;;;5035379;28;20285;-84
2022/01/10 13:04:08;;;;;;;6.82;4.90;;;;;;;;;;5034711;28;20203;-83
2022/01/10 13:06:41;;;;;;;6.93;5.50;;;;;;;;;;5034976;28;20677;-83
2022/01/10 13:09:10;;;;;;;11.50;6.90;;;;;;;;;;5035501;28;20651;-84
2022/01/10 13:11:45;;;;;;;7.80;5.63;;;;;;;;;;5035479;28;20198;-83
2022/01/10 13:14:15;;;;;;;7.80;5.55;;;;;;;;;;5035895;28;20208;-85
2022/01/10 13:16:45;;;;;;;8.50;5.72;;;;;;;;;;5035998;28;20328;-84
2022/01/10 13:19:14;;;;;;;9.25;5.78;;;;;;;;;;5036174;28;20241;-85
2022/01/10 13:21:48;;;;;;;9.25;5.90;;;;;;;;;;5034975;28;20206;-84
2022/01/10 13:24:19;;;;;;;9.40;6.57;;;;;;;;;;5034392;28;20669;-83
2022/01/10 13:27:04;;;;;;;8.25;6.35;;;;;;;;;;5034335;28;20614;-84
2022/01/10 13:29:39;;;;;;;9.35;6.07;;;;;;;;;;5034139;28;20222;-83
2022/01/10 13:32:24;;;;;;;7.13;6.07;;;;;;;;;;5033905;28;20619;-84
2022/01/10 13:34:54;;;;;;;6.80;5.78;;;;;;;;;;5033397;28;20210;-83
2022/01/10 13:37:33;;;;;;;7.32;5.70;;;;;;;;;;5034154;28;20619;-84
2022/01/10 13:40:11;;;;;;;7.00;5.97;;;;;;;;;;5034167;28;20225;-85
2022/01/10 13:42:49;;;;;;;5.07;4.63;;;;;;;;;;5033265;28;20240;-81
2022/01/10 13:45:20;;;;;;;4.38;4.00;;;;;;;;;;5039165;28;20193;-85
2022/01/10 13:48:00;;;;;;;4.38;3.70;;;;;;;;;;5052825;28;20272;-85
2022/01/10 13:50:31;;;;;;;7.00;5.18;;;;;;;;;;5052847;28;20668;-85
2022/01/10 13:53:13;;;;;;;6.90;5.65;;;;;;;;;;5049168;28;20871;-86
2022/01/10 13:55:44;;;;;;;7.60;5.28;;;;;;;;;;5032582;28;20241;-85
2022/01/10 13:58:27;;;;;;;6.47;5.70;;;;;;;;;;5032532;28;20728;-84
2022/01/10 14:01:00;;;;;;;8.13;5.63;;;;;;;;;;5032605;28;20217;-85
2022/01/10 14:03:31;;;;;;;8.13;5.57;;;;;;;;;;5033014;28;20252;-85
2022/01/10 14:06:28;;;;;;;6.22;5.15;;;;;;;;;;5032663;28;20630;-85
2022/01/10 14:09:01;;;;;;;7.18;6.00;;;;;;;;;;5032757;28;20222;-84
2022/01/10 14:11:30;;;;;;;8.13;6.35;;;;;;;;;;5032349;28;20573;-84
2022/01/10 14:14:00;;;;;;;4.82;4.32;;;;;;;;;;5032261;28;20206;-85
2022/01/10 14:16:34;;;;;;;6.18;4.90;;;;;;;;;;5032476;28;20202;-84
2022/01/10 14:19:02;;;;;;;7.43;6.22;;;;;;;;;;5035173;28;20219;-84
2022/01/10 14:21:30;;;;;;;8.90;5.63;;;;;;;;;;5035998;28;20587;-85
2022/01/10 14:23:59;;;;;;;8.35;5.60;;;;;;;;;;5036209;28;20203;-83
2022/01/10 14:26:26;;;;;;;6.45;5.72;;;;;;;;;;5036057;28;20207;-84
2022/01/10 14:28:54;;;;;;;6.15;4.80;;;;;;;;;;5035542;28;20654;-84
2022/01/10 14:31:21;;;;;;;8.05;6.00;;;;;;;;;;5036171;28;20206;-84
2022/01/10 14:33:50;;;;;;;6.05;4.82;;;;;;;;;;5035674;28;20670;-84
2022/01/10 14:36:18;;;;;;;11.27;7.13;;;;;;;;;;5035814;28;20252;-86
2022/01/10 14:38:46;;;;;;;10.77;7.43;;;;;;;;;;5035722;28;20218;-84
2022/01/10 14:41:15;;;;;;;9.38;6.97;;;;;;;;;;5035485;28;20202;-82
2022/01/10 14:43:43;;;;;;;10.85;7.78;;;;;;;;;;5035598;28;20199;-84
2022/01/10 14:46:11;;;;;;;10.02;7.68;;;;;;;;;;5035729;28;20592;-84
2022/01/10 14:48:38;;;;;;;9.30;7.28;;;;;;;;;;5035538;28;20226;-84
2022/01/10 14:51:07;;;;;;;7.82;6.28;;;;;;;;;;5035545;28;20805;-85
2022/01/10 14:53:35;;;;;;;10.00;6.72;;;;;;;;;;5037013;28;20213;-85
2022/01/10 14:56:03;;;;;;;9.48;7.75;;;;;;;;;;5054680;28;20232;-85
2022/01/10 14:58:32;;;;;;;8.48;7.00;;;;;;;;;;5054676;28;20229;-84
2022/01/10 15:00:59;;;;;;;15.85;9.82;;;;;;;;;;5055674;28;20209;-84
2022/01/10 15:03:28;;;;;;;9.32;8.40;;;;;;;;;;5055154;28;20201;-87
2022/01/10 15:05:57;;;;;;;12.77;9.23;;;;;;;;;;5056399;28;20210;-87
2022/01/10 15:08:26;;;;;;;14.55;9.73;;;;;;;;;;5055584;28;20210;-87
2022/01/10 15:10:59;;;;;;;11.20;8.98;;;;;;;;;;5055095;28;20703;-86
2022/01/10 15:13:29;;;;;;;13.70;8.25;;;;;;;;;;5038702;28;20609;-86
2022/01/10 15:15:59;;;;;;;20.05;11.23;;;;;;;;;;5035689;28;20187;-86
2022/01/10 15:18:28;;;;;;;13.77;10.23;;;;;;;;;;5035712;28;20218;-87
2022/01/10 15:20:55;;;;;;;15.13;10.13;;;;;;;;;;5051856;28;20205;-86
2022/01/10 15:23:23;;;;;;;11.10;8.85;;;;;;;;;;5054908;28;20194;-86
2022/01/10 15:25:50;;;;;;;9.48;8.48;;;;;;;;;;5055529;28;20197;-86
2022/01/10 15:28:20;;;;;;;10.25;7.20;;;;;;;;;;5055605;28;20244;-87
2022/01/10 15:30:47;;;;;;;7.93;7.13;;;;;;;;;;5054585;28;20225;-86
2022/01/10 15:33:16;;;;;;;8.63;7.45;;;;;;;;;;5054661;28;20576;-86
2022/01/10 15:35:44;;;;;;;11.05;6.85;;;;;;;;;;5055558;28;20207;-86
2022/01/10 15:38:12;;;;;;;11.27;8.40;;;;;;;;;;5055677;28;20723;-87
2022/01/10 15:40:39;;;;;;;16.52;9.38;;;;;;;;;;5055739;28;20201;-86
2022/01/10 15:43:07;;;;;;;11.55;8.77;;;;;;;;;;5041378;28;20225;-87
2022/01/10 15:45:34;;;;;;;13.05;9.98;;;;;;;;;;5035461;28;20221;-86
2022/01/10 15:48:02;;;;;;;13.90;9.68;;;;;;;;;;5035384;28;20223;-87
2022/01/10 15:50:31;;;;;;;16.42;11.65;;;;;;;;;;5035769;28;20226;-87
2022/01/10 15:52:58;;;;;;;12.98;11.35;;;;;;;;;;5035990;28;20206;-86
2022/01/10 15:55:25;;;;;;;13.85;10.60;;;;;;;;;;5039976;28;20194;-86
2022/01/10 15:57:54;;;;;;;21.02;12.48;;;;;;;;;;5046174;28;20234;-87
2022/01/10 16:00:21;;;;;;;12.13;10.15;;;;;;;;;;5049920;28;20198;-87
2022/01/10 16:02:48;;;;;;;13.88;10.13;;;;;;;;;;5045609;28;20681;-86
2022/01/10 16:05:16;;;;;;;13.35;10.05;;;;;;;;;;5036843;28;20584;-87
2022/01/10 16:07:45;;;;;;;12.05;9.35;;;;;;;;;;5037140;28;20229;-87
2022/01/10 16:10:14;;;;;;;11.50;9.82;;;;;;;;;;5040652;28;20229;-87
2022/01/10 16:12:42;;;;;;;13.90;10.32;;;;;;;;;;5042462;28;20302;-87
2022/01/10 16:15:10;;;;;;;9.52;8.50;;;;;;;;;;5040718;28;20256;-87
2022/01/10 16:17:37;;;;;;;16.70;10.90;;;;;;;;;;5041288;28;20214;-87
2022/01/10 16:20:06;;;;;;;14.45;10.93;;;;;;;;;;5040670;28;20202;-88
2022/01/10 16:22:33;;;;;;;16.92;10.95;;;;;;;;;;5040527;28;20213;-87
2022/01/10 16:25:02;;;;;;;13.05;10.15;;;;;;;;;;5042038;28;20221;-87
2022/01/10 16:27:29;;;;;;;15.30;10.23;;;;;;;;;;5042140;28;20246;-88